Time;durP1;ratioP1;P1;durP2;ratioP2;P2;SDS_P1;SDS_P2;PMS_P1;PMS_P2;Temp;Humidity;BMP_temperature;BMP_pressure;BME280_temperature;BME280_humidity;BME280_pressure;Samples;Min_cycle;Max_cycle;Signal;HPM_P1;HPM_P2
2021/04/09 05:00:13;;;;;;;16.85;10.78;;;;;;;6.64;62.70;100899.67;1827903;76;23138;-61
2021/04/09 05:02:42;;;;;;;15.53;9.48;;;;;;;6.89;61.75;100900.30;1809549;78;21669;-61
2021/04/09 05:05:12;;;;;;;10.28;8.40;;;;;;;7.19;61.18;100904.65;1802520;78;22169;-62
2021/04/09 05:07:42;;;;;;;12.25;8.65;;;;;;;7.44;60.06;100906.07;1790832;78;21051;-61
2021/04/09 05:10:12;;;;;;;12.00;9.10;;;;;;;7.68;59.46;100901.44;1785963;79;21024;-62
2021/04/09 05:12:41;;;;;;;9.88;8.38;;;;;;;7.92;58.61;100902.89;1781699;79;20937;-62
2021/04/09 05:15:12;;;;;;;10.32;7.17;;;;;;;8.14;57.86;100914.72;1719039;81;20954;-62
2021/04/09 05:17:42;;;;;;;11.15;8.15;;;;;;;8.37;57.40;100912.72;1756638;81;22272;-62
2021/04/09 05:20:14;;;;;;;9.70;7.92;;;;;;;8.56;56.80;100919.83;1755747;81;21031;-62
2021/04/09 05:22:43;;;;;;;11.73;7.47;;;;;;;8.78;56.07;100923.00;1735412;80;21705;-62
2021/04/09 05:25:12;;;;;;;9.38;8.03;;;;;;;8.98;55.04;100921.84;1732010;82;21144;-62
2021/04/09 05:27:42;;;;;;;13.62;9.08;;;;;;;9.20;55.03;100925.80;1749532;81;21714;-63
2021/04/09 05:30:12;;;;;;;13.98;8.70;;;;;;;9.41;54.19;100918.98;1744146;81;22176;-61
2021/04/09 05:32:40;;;;;;;11.28;8.50;;;;;;;9.57;53.91;100927.91;1747822;80;21025;-62
2021/04/09 05:35:11;;;;;;;12.93;9.50;;;;;;;9.78;53.59;100926.23;1744047;80;21617;-62
2021/04/09 05:37:40;;;;;;;16.32;9.85;;;;;;;9.97;52.70;100920.72;1738594;81;20950;-62
2021/04/09 05:40:10;;;;;;;14.05;9.68;;;;;;;10.11;52.26;100927.50;1731966;82;21504;-62
2021/04/09 05:42:39;;;;;;;11.22;9.35;;;;;;;10.27;51.64;100931.68;1740361;81;21134;-61
2021/04/09 05:45:09;;;;;;;11.85;9.23;;;;;;;10.41;51.17;100931.09;1730298;81;21731;-63
2021/04/09 05:47:38;;;;;;;13.65;9.98;;;;;;;10.52;50.95;100938.02;1732840;81;20945;-62
2021/04/09 05:50:07;;;;;;;15.23;9.28;;;;;;;10.58;50.68;100938.61;1744815;80;20942;-61
2021/04/09 05:52:37;;;;;;;12.05;9.90;;;;;;;10.66;50.48;100944.80;1721062;80;21073;-62
2021/04/09 05:55:08;;;;;;;13.10;10.05;;;;;;;10.75;49.77;100942.28;1723523;82;21953;-60
2021/04/09 05:57:41;;;;;;;15.28;10.20;;;;;;;10.84;49.41;100940.10;1725836;82;20965;-62
2021/04/09 06:00:13;;;;;;;12.40;9.53;;;;;;;10.92;49.46;100948.44;1713963;82;21136;-63
2021/04/09 06:02:44;;;;;;;13.75;10.10;;;;;;;10.92;49.32;100947.14;1718031;81;21005;-62
2021/04/09 06:05:13;;;;;;;16.40;9.98;;;;;;;10.82;49.40;100945.84;1711572;81;21658;-63
2021/04/09 06:07:41;;;;;;;14.15;10.53;;;;;;;10.76;49.27;100954.39;1761324;80;21297;-63
2021/04/09 06:10:11;;;;;;;13.00;9.93;;;;;;;10.73;49.14;100954.52;1781079;78;21072;-62
2021/04/09 06:12:41;;;;;;;13.88;9.68;;;;;;;10.77;49.05;100957.39;1720504;81;21212;-62
2021/04/09 06:15:12;;;;;;;12.90;9.60;;;;;;;10.82;49.01;100957.56;1730432;81;21073;-64
2021/04/09 06:17:40;;;;;;;12.50;9.65;;;;;;;10.96;49.23;100963.49;1796571;78;20984;-63
2021/04/09 06:20:10;;;;;;;13.48;10.25;;;;;;;11.07;49.05;100970.86;1776097;79;21358;-62
2021/04/09 06:22:38;;;;;;;12.78;10.20;;;;;;;11.16;48.93;100971.31;1726977;81;21152;-62
2021/04/09 06:25:08;;;;;;;15.13;10.55;;;;;;;11.34;48.82;100975.70;1719444;83;21681;-62
2021/04/09 06:27:37;;;;;;;15.80;10.58;;;;;;;11.52;48.23;100977.11;1737820;80;21077;-62
2021/04/09 06:30:07;;;;;;;16.52;12.47;;;;;;;11.57;47.80;100977.30;1790758;79;22067;-62
2021/04/09 06:32:36;;;;;;;13.72;11.35;;;;;;;11.55;47.69;100979.58;1782025;79;22857;-62
2021/04/09 06:35:07;;;;;;;12.35;10.80;;;;;;;11.47;47.83;100980.38;1782027;78;21222;-63
2021/04/09 06:37:36;;;;;;;14.95;11.48;;;;;;;11.31;48.50;100980.20;1777399;78;20978;-63
2021/04/09 06:40:07;;;;;;;18.67;11.75;;;;;;;11.19;48.29;100984.22;1782272;79;21579;-62
2021/04/09 06:42:36;;;;;;;14.83;11.68;;;;;;;11.08;48.34;100989.03;1785954;79;20985;-62
2021/04/09 06:45:07;;;;;;;16.02;11.18;;;;;;;11.03;48.65;100990.53;1754965;81;21237;-62
2021/04/09 06:47:35;;;;;;;13.95;9.90;;;;;;;11.05;49.37;100992.23;1730081;81;21593;-62
2021/04/09 06:50:05;;;;;;;12.10;10.35;;;;;;;11.11;49.36;100990.67;1728216;80;22228;-62
2021/04/09 06:52:34;;;;;;;13.90;9.98;;;;;;;11.24;49.47;100990.50;1722339;82;20979;-62
2021/04/09 06:55:05;;;;;;;13.78;10.43;;;;;;;11.32;48.42;100997.54;1790927;78;21030;-62
2021/04/09 06:57:37;;;;;;;14.30;10.30;;;;;;;11.41;48.01;100999.75;1793005;79;21701;-63
2021/04/09 07:00:09;;;;;;;11.68;10.08;;;;;;;11.49;47.99;101004.17;1748526;79;21029;-63
2021/04/09 07:02:43;;;;;;;12.60;9.73;;;;;;;11.65;47.96;101005.62;1791415;79;21620;-61
2021/04/09 07:05:15;;;;;;;12.60;10.60;;;;;;;11.91;47.05;101001.41;1774640;79;21100;-61
2021/04/09 07:07:43;;;;;;;12.45;9.98;;;;;;;12.17;47.10;101008.47;1775293;79;21664;-61
2021/04/09 07:10:14;;;;;;;13.78;10.38;;;;;;;12.42;46.44;101005.52;1772256;78;22114;-62
2021/04/09 07:12:42;;;;;;;11.88;10.18;;;;;;;12.59;46.17;101005.56;1770950;79;21642;-61
2021/04/09 07:15:16;;;;;;;20.00;10.60;;;;;;;12.70;45.22;101004.58;1781220;79;21187;-61
2021/04/09 07:17:48;;;;;;;14.85;11.08;;;;;;;12.75;45.37;101009.13;1783686;79;20957;-61
2021/04/09 07:20:27;;;;;;;16.65;9.85;;;;;;;12.90;45.26;101009.64;1780867;78;20993;-62
2021/04/09 07:22:57;;;;;;;13.70;10.23;;;;;;;13.07;44.19;101013.19;1777525;79;22659;-61
2021/04/09 07:25:29;;;;;;;12.78;10.18;;;;;;;13.20;44.09;101016.87;1782171;79;22507;-61
2021/04/09 07:28:23;;;;;;;14.25;9.83;;;;;;;13.30;44.00;101013.72;1773714;79;21616;-62
2021/04/09 07:30:59;;;;;;;10.82;9.33;;;;;;;13.44;43.85;101012.16;1781842;78;21622;-61
2021/04/09 07:33:28;;;;;;;10.25;8.50;;;;;;;13.65;42.32;101017.55;1778417;79;20886;-61
2021/04/09 07:36:01;;;;;;;10.25;9.15;;;;;;;13.68;42.54;101018.24;1770304;79;21466;-62
2021/04/09 07:38:33;;;;;;;12.20;8.90;;;;;;;13.80;43.14;101014.59;1770827;79;20945;-62
2021/04/09 07:41:06;;;;;;;15.32;9.58;;;;;;;13.94;42.43;101022.56;1780379;79;21621;-61
2021/04/09 07:43:54;;;;;;;10.35;8.65;;;;;;;14.02;42.17;101022.49;1701539;83;20956;-63
2021/04/09 07:46:37;;;;;;;13.08;8.30;;;;;;;14.11;42.04;101021.61;1740010;81;21238;-62
2021/04/09 07:49:05;;;;;;;11.40;8.90;;;;;;;14.19;41.82;101016.34;1726917;81;21258;-62
2021/04/09 07:51:34;;;;;;;11.80;8.58;;;;;;;14.26;41.22;101017.69;1746564;81;21232;-62
2021/04/09 07:54:09;;;;;;;10.78;8.13;;;;;;;14.32;41.44;101016.52;1743048;81;21127;-62
2021/04/09 07:56:46;;;;;;;8.55;6.40;;;;;;;14.41;41.23;101019.93;1763093;81;21661;-62
2021/04/09 07:59:36;;;;;;;9.93;6.92;;;;;;;14.46;39.79;101019.20;1749882;81;21210;-62
2021/04/09 08:02:05;;;;;;;9.53;6.47;;;;;;;14.52;40.30;101025.42;1726895;81;22328;-61
2021/04/09 08:04:42;;;;;;;8.58;6.30;;;;;;;14.63;39.19;101019.11;1786420;77;20977;-62
2021/04/09 08:07:33;;;;;;;7.45;5.72;;;;;;;14.73;38.33;101018.12;1809829;78;20914;-62
2021/04/09 08:10:01;;;;;;;9.10;6.95;;;;;;;14.79;38.31;101015.61;1722327;79;21635;-63
2021/04/09 08:12:33;;;;;;;8.35;6.67;;;;;;;14.83;38.69;101019.72;1809764;78;21020;-63
2021/04/09 08:15:20;;;;;;;7.95;6.40;;;;;;;14.86;38.66;101013.83;1817458;78;21423;-63
2021/04/09 08:18:07;;;;;;;11.25;6.90;;;;;;;14.88;36.83;101015.90;1786135;78;21102;-63
2021/04/09 08:20:42;;;;;;;8.53;6.20;;;;;;;14.75;36.73;101011.48;1798531;78;21202;-62
2021/04/09 08:23:13;;;;;;;6.78;6.10;;;;;;;14.62;37.82;101006.09;1766335;79;21034;-63
2021/04/09 08:25:43;;;;;;;8.40;6.20;;;;;;;14.61;37.37;101009.17;1777258;79;22396;-62
2021/04/09 08:28:12;;;;;;;8.03;6.25;;;;;;;14.64;37.81;101010.78;1797618;78;21366;-62
2021/04/09 08:30:41;;;;;;;7.47;6.37;;;;;;;14.61;37.26;101014.41;1797406;78;21070;-62
2021/04/09 08:33:10;;;;;;;6.25;5.65;;;;;;;14.59;38.45;101005.80;1760811;78;21614;-61
2021/04/09 08:35:39;;;;;;;6.10;4.70;;;;;;;14.62;37.52;101004.77;1775019;78;20957;-62
2021/04/09 08:38:10;;;;;;;6.80;5.62;;;;;;;14.60;36.53;101005.33;1808722;78;21641;-62
2021/04/09 08:40:38;;;;;;;6.22;4.87;;;;;;;14.60;36.67;101008.80;1797955;78;22490;-62
2021/04/09 08:43:08;;;;;;;6.25;4.90;;;;;;;14.64;36.16;101009.00;1799500;78;21008;-62
2021/04/09 08:45:38;;;;;;;6.28;4.47;;;;;;;14.63;36.00;101007.78;1755735;80;21190;-63
2021/04/09 08:48:07;;;;;;;5.37;4.20;;;;;;;14.63;34.98;100999.91;1793420;78;21597;-62
2021/04/09 08:50:36;;;;;;;5.58;4.40;;;;;;;14.59;33.77;101001.02;1817785;78;21456;-63
2021/04/09 08:53:06;;;;;;;5.28;4.78;;;;;;;14.52;34.23;101007.53;1821158;78;21189;-62
2021/04/09 08:55:38;;;;;;;4.60;4.20;;;;;;;14.42;34.88;101009.83;1803884;78;22001;-61
2021/04/09 08:58:17;;;;;;;3.60;3.27;;;;;;;14.26;33.90;101011.14;1809509;78;21543;-63
2021/04/09 09:00:47;;;;;;;7.17;4.90;;;;;;;14.09;32.88;101009.91;1794418;78;21621;-63
2021/04/09 09:03:27;;;;;;;4.35;3.67;;;;;;;14.05;32.52;101009.70;1800226;78;21040;-62
2021/04/09 09:06:06;;;;;;;4.50;3.95;;;;;;;14.03;32.49;101015.02;1768863;79;22322;-63
2021/04/09 09:08:50;;;;;;;4.42;4.03;;;;;;;14.12;32.17;101017.60;1808241;78;20989;-62
2021/04/09 09:11:50;;;;;;;5.95;4.20;;;;;;;14.18;31.65;101011.19;1774112;78;21545;-62
2021/04/09 09:14:40;;;;;;;5.30;4.17;;;;;;;14.23;32.59;101014.40;1810452;78;21681;-62
2021/04/09 09:17:25;;;;;;;4.95;4.12;;;;;;;14.35;32.17;101002.77;1822622;78;21575;-63
2021/04/09 09:20:10;;;;;;;6.05;4.20;;;;;;;14.49;32.34;101007.71;1838085;78;20938;-62
2021/04/09 09:22:47;;;;;;;4.50;4.10;;;;;;;14.60;31.96;101005.33;1787187;79;21068;-61
2021/04/09 09:25:33;;;;;;;5.08;3.75;;;;;;;14.65;31.67;101015.94;1788584;79;21024;-62
2021/04/09 09:28:02;;;;;;;3.65;3.35;;;;;;;14.67;31.37;101014.06;1786480;80;21016;-63
2021/04/09 09:30:39;;;;;;;4.12;3.70;;;;;;;14.62;30.89;101013.95;1781220;80;22173;-61
2021/04/09 09:33:25;;;;;;;7.80;4.10;;;;;;;14.54;30.63;101013.07;1813008;78;22240;-63
2021/04/09 09:36:03;;;;;;;4.17;3.77;;;;;;;14.49;32.22;101020.34;1819970;78;21040;-61
2021/04/09 09:38:55;;;;;;;4.45;3.90;;;;;;;14.53;31.68;101017.09;1822194;78;21598;-62
2021/04/09 09:41:47;;;;;;;6.67;5.15;;;;;;;14.52;31.42;101021.48;1821558;78;21017;-61
2021/04/09 09:44:31;;;;;;;5.78;4.50;;;;;;;14.50;31.95;101026.44;1819714;78;21574;-61
2021/04/09 09:47:06;;;;;;;4.67;4.00;;;;;;;14.40;32.06;101026.07;1818240;78;21192;-62
2021/04/09 09:49:36;;;;;;;4.45;4.05;;;;;;;14.28;32.29;101034.17;1803118;78;21011;-61
2021/04/09 09:52:25;;;;;;;6.62;5.25;;;;;;;14.20;32.87;101031.13;1800970;79;21142;-61
2021/04/09 09:55:12;;;;;;;7.28;5.15;;;;;;;14.11;32.23;101036.87;1802350;79;20996;-61
2021/04/09 09:57:49;;;;;;;4.50;4.08;;;;;;;13.96;32.35;101035.95;1800267;79;20969;-62
2021/04/09 10:00:43;;;;;;;4.30;3.90;;;;;;;13.83;32.09;101041.45;1802369;79;23458;-61
2021/04/09 10:03:22;;;;;;;6.58;5.03;;;;;;;13.69;31.36;101041.33;1799273;78;21629;-61
2021/04/09 10:05:53;;;;;;;6.22;4.40;;;;;;;13.54;31.18;101042.16;1764893;81;21644;-61
2021/04/09 10:08:22;;;;;;;7.67;5.22;;;;;;;13.44;31.41;101033.94;1777009;79;20976;-62
2021/04/09 10:11:06;;;;;;;7.25;4.33;;;;;;;13.37;32.47;101033.02;1772580;78;21944;-62
2021/04/09 10:13:40;;;;;;;5.67;3.85;;;;;;;13.33;32.39;101037.56;1888940;76;22239;-61
2021/04/09 10:16:14;;;;;;;3.90;3.47;;;;;;;13.15;31.86;101038.03;1860659;77;21477;-61
2021/04/09 10:18:53;;;;;;;3.92;3.50;;;;;;;13.06;31.80;101046.80;1860825;77;22220;-62
2021/04/09 10:21:24;;;;;;;4.12;3.47;;;;;;;12.96;31.66;101041.17;1860745;77;22174;-61
2021/04/09 10:24:13;;;;;;;4.58;3.60;;;;;;;12.89;31.68;101044.55;1860921;77;20989;-61
2021/04/09 10:26:51;;;;;;;4.55;3.90;;;;;;;12.85;31.30;101040.39;1861189;77;21439;-62
2021/04/09 10:29:28;;;;;;;3.58;3.20;;;;;;;12.82;31.44;101044.92;1814987;79;21461;-62
2021/04/09 10:31:58;;;;;;;3.65;3.25;;;;;;;12.81;30.80;101033.63;1815001;79;21354;-62
2021/04/09 10:34:32;;;;;;;4.28;3.10;;;;;;;12.79;29.91;101030.27;1814116;79;21640;-62
2021/04/09 10:37:03;;;;;;;3.50;3.17;;;;;;;12.79;29.63;101028.12;1815302;79;21470;-62
2021/04/09 10:39:33;;;;;;;5.25;3.05;;;;;;;12.82;29.76;101019.63;1815029;79;21505;-62
2021/04/09 10:42:02;;;;;;;3.30;3.00;;;;;;;12.78;28.85;101022.50;1814964;79;20936;-61
2021/04/09 10:44:31;;;;;;;4.58;3.10;;;;;;;12.69;28.89;101022.48;1815031;78;22092;-62
2021/04/09 10:47:04;;;;;;;5.30;4.65;;;;;;;12.56;28.56;101014.39;1814483;78;21468;-61
2021/04/09 10:49:35;;;;;;;4.72;4.10;;;;;;;12.42;29.11;101021.20;1810962;78;21462;-61
2021/04/09 10:52:07;;;;;;;5.28;3.17;;;;;;;12.34;29.62;101020.28;1812246;78;21029;-62
2021/04/09 10:54:38;;;;;;;4.95;3.75;;;;;;;12.30;29.53;101016.97;1803720;78;21657;-62
2021/04/09 10:57:11;;;;;;;4.62;3.40;;;;;;;12.27;29.46;101022.34;1814500;78;21374;-62
2021/04/09 10:59:42;;;;;;;4.90;3.12;;;;;;;12.24;29.73;101030.31;1783296;79;21805;-62
2021/04/09 11:02:21;;;;;;;5.95;4.22;;;;;;;12.10;30.10;101020.12;1761820;79;21138;-62
2021/04/09 11:04:58;;;;;;;6.10;3.98;;;;;;;11.91;31.58;101029.28;1780036;79;21631;-63
2021/04/09 11:07:45;;;;;;;7.15;4.60;;;;;;;11.75;31.71;101021.71;1770994;79;21618;-61
2021/04/09 11:10:32;;;;;;;5.80;4.20;;;;;;;11.68;31.53;101027.66;1757416;80;21053;-61
2021/04/09 11:13:00;;;;;;;6.33;4.22;;;;;;;11.58;31.02;101027.70;1773406;79;21077;-62
2021/04/09 11:15:42;;;;;;;5.72;4.40;;;;;;;11.39;31.44;101022.44;1803000;79;21072;-62
2021/04/09 11:18:13;;;;;;;7.50;3.60;;;;;;;11.27;31.77;101022.50;1778315;79;21053;-62
2021/04/09 11:20:45;;;;;;;4.37;3.40;;;;;;;11.23;31.79;101012.27;1816401;77;20930;-62
2021/04/09 11:23:16;;;;;;;3.25;2.95;;;;;;;11.23;31.26;101017.03;1783898;79;22130;-61
2021/04/09 11:25:48;;;;;;;4.40;3.70;;;;;;;11.21;30.49;101014.09;1862452;76;21577;-61
2021/04/09 11:28:28;;;;;;;3.80;3.30;;;;;;;11.16;30.62;101017.39;1831420;76;21001;-61
2021/04/09 11:31:04;;;;;;;3.22;2.92;;;;;;;11.06;30.90;101016.92;1838845;76;20934;-61
2021/04/09 11:33:37;;;;;;;4.00;3.40;;;;;;;10.98;30.69;101015.09;1842848;76;21684;-62
2021/04/09 11:36:18;;;;;;;3.52;3.22;;;;;;;10.94;31.06;101010.92;1841487;76;22233;-62
2021/04/09 11:38:50;;;;;;;4.53;3.02;;;;;;;10.94;31.77;101013.07;1868081;76;21631;-61
2021/04/09 11:41:32;;;;;;;6.17;3.45;;;;;;;11.02;31.34;101020.57;1788656;80;21013;-62
2021/04/09 11:44:03;;;;;;;6.40;3.45;;;;;;;11.02;30.95;101019.27;1795641;79;21017;-63
2021/04/09 11:46:36;;;;;;;3.77;3.42;;;;;;;10.98;31.82;101013.34;1749963;80;21602;-61
2021/04/09 11:49:06;;;;;;;4.50;3.47;;;;;;;11.00;32.11;101013.27;1812108;77;22302;-62
2021/04/09 11:51:35;;;;;;;4.30;3.33;;;;;;;10.96;31.55;101011.70;1778768;80;21065;-62
2021/04/09 11:54:23;;;;;;;3.55;3.22;;;;;;;10.88;31.73;101006.81;1762950;80;21409;-62
2021/04/09 11:56:48;;;;;;;3.60;3.30;;;;;;;10.84;32.29;101010.91;1784858;80;21074;-62
2021/04/09 11:59:19;;;;;;;4.37;3.05;;;;;;;10.83;32.25;101013.12;1798655;77;21626;-62
2021/04/09 12:01:49;;;;;;;3.90;3.37;;;;;;;10.86;31.96;101012.99;1813398;78;21223;-61
2021/04/09 12:04:39;;;;;;;3.37;3.02;;;;;;;10.86;31.73;101011.69;1782093;80;21650;-62
2021/04/09 12:07:20;;;;;;;3.50;3.20;;;;;;;10.81;31.28;101007.97;1780409;79;20985;-62
2021/04/09 12:09:53;;;;;;;3.35;3.08;;;;;;;10.78;32.21;101000.77;1802462;79;21052;-62
2021/04/09 12:12:25;;;;;;;4.35;3.20;;;;;;;10.79;31.92;101005.06;1792768;78;21022;-61
2021/04/09 12:14:57;;;;;;;6.08;4.12;;;;;;;10.78;31.67;101002.07;1804744;77;22289;-61
2021/04/09 12:17:25;;;;;;;5.60;4.30;;;;;;;10.78;32.48;100998.16;1779128;80;20955;-61
2021/04/09 12:19:57;;;;;;;4.55;3.47;;;;;;;10.81;32.70;100998.85;1798693;79;21634;-61
2021/04/09 12:22:27;;;;;;;5.50;3.87;;;;;;;10.89;33.87;100995.47;1777960;80;20997;-61
2021/04/09 12:24:56;;;;;;;3.50;3.20;;;;;;;10.98;33.39;101000.30;1798931;79;21587;-62
2021/04/09 12:27:25;;;;;;;3.67;3.05;;;;;;;11.03;32.77;100993.14;1777948;78;21587;-62
2021/04/09 12:29:54;;;;;;;6.78;3.80;;;;;;;11.08;32.09;100994.25;1798581;78;21638;-60
2021/04/09 12:32:23;;;;;;;4.40;3.30;;;;;;;11.09;32.32;100984.67;1780230;80;21071;-62
2021/04/09 12:34:51;;;;;;;4.03;3.15;;;;;;;11.10;32.26;100982.45;1797681;79;21650;-63
2021/04/09 12:37:20;;;;;;;3.72;3.22;;;;;;;11.12;32.38;100989.30;1798247;79;21507;-61
2021/04/09 12:39:49;;;;;;;3.95;3.55;;;;;;;11.10;31.12;100985.06;1803074;77;21707;-62
2021/04/09 12:42:19;;;;;;;5.17;3.90;;;;;;;11.01;31.18;100978.02;1779244;79;21392;-63
2021/04/09 12:44:47;;;;;;;8.05;4.92;;;;;;;10.97;31.53;100972.55;1774484;80;21588;-62
2021/04/09 12:47:16;;;;;;;4.58;3.55;;;;;;;10.95;32.35;100976.98;1784234;80;21124;-61
2021/04/09 12:49:47;;;;;;;3.72;3.12;;;;;;;10.96;31.95;100981.73;1799333;77;21420;-61
2021/04/09 12:52:15;;;;;;;3.58;3.17;;;;;;;10.93;31.15;100983.17;1809759;79;21412;-62
2021/04/09 12:54:44;;;;;;;4.70;3.50;;;;;;;10.91;31.45;100979.32;1778416;80;21579;-61
2021/04/09 12:57:15;;;;;;;5.53;3.58;;;;;;;10.92;32.46;100982.32;1814072;79;21543;-61
2021/04/09 12:59:44;;;;;;;3.35;2.77;;;;;;;10.95;33.23;100980.05;1790127;78;21599;-61
2021/04/09 13:02:15;;;;;;;4.17;3.50;;;;;;;11.00;32.82;100975.48;1782794;79;20978;-61
2021/04/09 13:04:43;;;;;;;5.83;4.45;;;;;;;11.01;32.23;100971.51;1813720;78;21386;-62
2021/04/09 13:07:12;;;;;;;7.33;4.75;;;;;;;11.06;32.66;100976.98;1751370;79;21666;-62
2021/04/09 13:09:40;;;;;;;4.40;4.00;;;;;;;11.12;33.25;100972.81;1801483;78;21603;-62
2021/04/09 13:12:12;;;;;;;6.85;5.22;;;;;;;11.21;32.44;100970.62;1747796;80;21065;-61
2021/04/09 13:14:41;;;;;;;7.08;4.47;;;;;;;11.26;32.18;100970.42;1781139;80;21107;-62
2021/04/09 13:17:13;;;;;;;7.92;4.67;;;;;;;11.30;32.78;100971.53;1805904;78;20954;-62
2021/04/09 13:19:42;;;;;;;5.03;4.20;;;;;;;11.34;32.81;100970.48;1766881;80;21491;-61
2021/04/09 13:22:11;;;;;;;8.80;4.25;;;;;;;11.37;32.17;100965.59;1780718;80;20963;-62
2021/04/09 13:24:40;;;;;;;5.47;3.92;;;;;;;11.36;32.68;100971.27;1783951;79;21532;-62
2021/04/09 13:27:15;;;;;;;5.83;3.85;;;;;;;11.34;32.71;100961.81;1800003;78;20930;-63
2021/04/09 13:29:42;;;;;;;3.77;3.47;;;;;;;11.29;32.33;100971.14;1772989;79;22116;-62
2021/04/09 13:32:12;;;;;;;5.20;3.52;;;;;;;11.20;32.23;100962.41;1793340;78;21562;-62
2021/04/09 13:34:41;;;;;;;4.72;3.52;;;;;;;11.15;32.47;100972.22;1774347;80;20995;-63
2021/04/09 13:37:09;;;;;;;3.15;2.92;;;;;;;11.12;32.69;100967.14;1808926;79;21476;-62
2021/04/09 13:39:38;;;;;;;4.78;3.45;;;;;;;11.11;32.83;100969.36;1765405;80;21731;-62
2021/04/09 13:42:08;;;;;;;3.45;3.05;;;;;;;11.10;32.58;100968.13;1799154;77;21186;-62
2021/04/09 13:44:36;;;;;;;9.48;4.30;;;;;;;11.08;32.30;100963.43;1782261;79;20951;-63
2021/04/09 13:47:05;;;;;;;6.15;4.20;;;;;;;11.02;32.40;100964.08;1791100;79;21654;-62
2021/04/09 13:49:35;;;;;;;3.98;3.40;;;;;;;11.02;32.67;100968.45;1783418;80;21065;-62
2021/04/09 13:52:06;;;;;;;4.25;3.62;;;;;;;11.03;32.43;100965.77;1791606;78;21578;-61
2021/04/09 13:54:35;;;;;;;7.40;5.22;;;;;;;11.00;31.57;100967.66;1787490;80;21331;-62
2021/04/09 13:57:05;;;;;;;7.17;4.30;;;;;;;10.91;31.36;100964.98;1783358;78;21587;-61
2021/04/09 13:59:34;;;;;;;3.75;3.10;;;;;;;10.85;31.64;100967.00;1782928;79;21056;-61
2021/04/09 14:02:03;;;;;;;6.33;4.50;;;;;;;10.81;31.88;100968.05;1777598;80;21717;-62
2021/04/09 14:04:32;;;;;;;4.35;3.50;;;;;;;10.76;32.00;100969.56;1812266;78;21463;-61
2021/04/09 14:07:01;;;;;;;3.58;3.08;;;;;;;10.73;32.31;100968.84;1782854;80;22159;-61
2021/04/09 14:09:33;;;;;;;3.30;3.00;;;;;;;10.69;31.81;100967.67;1779580;79;21587;-62
2021/04/09 14:12:04;;;;;;;5.22;3.58;;;;;;;10.64;31.68;100968.77;1808548;78;20995;-62
2021/04/09 14:14:33;;;;;;;4.85;4.00;;;;;;;10.55;31.66;100967.38;1828412;78;21172;-62
